createdAt,value
2019-02-23T00:00:50.985Z,7.09
2019-02-23T00:01:52.570Z,7.11
2019-02-23T00:02:50.996Z,7.09
2019-02-23T00:03:51.015Z,7.06
2019-02-23T00:04:50.757Z,7.03
2019-02-23T00:05:50.741Z,7.05
2019-02-23T00:06:50.922Z,7.03
2019-02-23T00:07:50.954Z,7.03
2019-02-23T00:08:50.760Z,6.99
2019-02-23T00:09:50.794Z,6.98
2019-02-23T00:10:51.661Z,6.96
2019-02-23T00:11:50.664Z,6.92
2019-02-23T00:12:51.064Z,6.94
2019-02-23T00:13:50.791Z,6.88
2019-02-23T00:14:51.189Z,6.9
2019-02-23T00:15:50.941Z,6.87
2019-02-23T00:16:51.086Z,6.85
2019-02-23T00:17:52.528Z,6.8
2019-02-23T00:18:50.747Z,6.8
2019-02-23T00:19:50.910Z,6.75
2019-02-23T00:20:50.703Z,6.75
2019-02-23T00:21:50.761Z,6.73
2019-02-23T00:22:51.762Z,6.71
2019-02-23T00:23:50.742Z,6.7
2019-02-23T00:24:51.003Z,6.67
2019-02-23T00:25:50.921Z,6.67
2019-02-23T00:26:50.727Z,6.67
2019-02-23T00:27:51.044Z,6.64
2019-02-23T00:28:51.058Z,6.64
2019-02-23T00:29:51.073Z,6.58
2019-02-23T00:30:51.183Z,6.58
2019-02-23T00:31:52.102Z,6.56
2019-02-23T00:32:51.735Z,6.54
2019-02-23T00:33:51.008Z,6.53
2019-02-23T00:34:51.108Z,6.47
2019-02-23T00:35:50.772Z,6.54
2019-02-23T00:36:50.762Z,6.48
2019-02-23T00:37:52.569Z,6.44
2019-02-23T00:38:50.489Z,6.44
2019-02-23T00:39:50.478Z,6.41
2019-02-23T00:40:51.037Z,6.41
2019-02-23T00:41:50.638Z,6.4
2019-02-23T00:42:51.069Z,6.36
2019-02-23T00:43:51.173Z,6.36
2019-02-23T00:44:50.647Z,6.37
2019-02-23T00:45:50.783Z,6.36
2019-02-23T00:46:50.770Z,6.33
2019-02-23T00:47:51.081Z,6.33
2019-02-23T00:48:50.664Z,6.3
2019-02-23T00:49:50.662Z,6.32
2019-02-23T00:50:51.110Z,6.35
2019-02-23T00:51:52.121Z,6.32
2019-02-23T00:52:51.032Z,6.33
2019-02-23T00:53:51.654Z,6.35
2019-02-23T00:54:52.474Z,6.32
2019-02-23T00:55:51.030Z,6.29
2019-02-23T00:56:51.257Z,6.25
2019-02-23T00:57:51.051Z,6.25
2019-02-23T00:58:51.060Z,6.19
2019-02-23T00:59:51.289Z,6.23
2019-02-23T01:00:50.698Z,6.23
2019-02-23T01:01:50.887Z,6.2
2019-02-23T01:02:50.982Z,6.18
2019-02-23T01:03:51.579Z,6.18
2019-02-23T01:04:51.195Z,6.16
2019-02-23T01:05:51.004Z,6.15
2019-02-23T01:06:50.750Z,6.13
2019-02-23T01:07:50.648Z,6.12
2019-02-23T01:08:52.472Z,6.09
2019-02-23T01:09:50.942Z,6.11
2019-02-23T01:10:58.630Z,6.05
2019-02-23T01:11:50.688Z,6.06
2019-02-23T01:12:50.802Z,6.04
2019-02-23T01:13:50.970Z,6.01
2019-02-23T01:14:51.794Z,6.04
2019-02-23T01:15:52.444Z,6.02
2019-02-23T01:16:51.067Z,6.01
2019-02-23T01:17:52.480Z,6.01
2019-02-23T01:18:50.734Z,6.01
2019-02-23T01:19:51.002Z,6.01
2019-02-23T01:20:50.613Z,6.02
2019-02-23T01:21:51.218Z,6.05
2019-02-23T01:22:50.641Z,6.02
2019-02-23T01:23:50.711Z,6.04
2019-02-23T01:24:50.691Z,6.01
2019-02-23T01:25:51.129Z,6.01
2019-02-23T01:26:51.244Z,6
2019-02-23T01:27:50.603Z,5.98
2019-02-23T01:28:50.964Z,5.97
2019-02-23T01:29:50.906Z,5.97
2019-02-23T01:30:50.734Z,5.95
2019-02-23T01:31:52.417Z,5.94
2019-02-23T01:32:50.881Z,5.94
2019-02-23T01:33:50.573Z,5.9
2019-02-23T01:34:51.294Z,5.88
2019-02-23T01:35:50.990Z,5.85
2019-02-23T01:36:52.402Z,5.87
2019-02-23T01:37:50.570Z,5.87
2019-02-23T01:38:50.560Z,5.8
2019-02-23T01:39:50.904Z,5.83
2019-02-23T01:40:50.625Z,5.77
2019-02-23T01:41:51.235Z,5.78
2019-02-23T01:42:50.743Z,5.75
2019-02-23T01:43:52.094Z,5.77
2019-02-23T01:44:51.327Z,5.78
2019-02-23T01:45:50.910Z,5.78
2019-02-23T01:46:50.632Z,5.77
2019-02-23T01:47:50.879Z,5.77
2019-02-23T01:48:50.653Z,5.75
2019-02-23T01:49:59.455Z,5.74
2019-02-23T01:50:50.571Z,5.73
2019-02-23T01:51:50.707Z,5.74
2019-02-23T01:52:50.928Z,5.71
2019-02-23T01:53:50.906Z,5.74
2019-02-23T01:54:51.018Z,5.73
2019-02-23T01:55:50.715Z,5.73
2019-02-23T01:56:50.603Z,5.75
2019-02-23T01:57:51.537Z,5.78
2019-02-23T01:58:51.248Z,5.73
2019-02-23T01:59:50.615Z,5.71
2019-02-23T02:00:50.957Z,5.7
2019-02-23T02:01:50.657Z,5.69
2019-02-23T02:02:50.348Z,5.69
2019-02-23T02:03:50.759Z,5.73
2019-02-23T02:04:50.883Z,5.71
2019-02-23T02:05:51.089Z,5.67
2019-02-23T02:06:50.570Z,5.7
2019-02-23T02:07:50.559Z,5.71
2019-02-23T02:08:52.400Z,5.66
2019-02-23T02:09:51.131Z,5.54
2019-02-23T02:10:50.711Z,5.59
2019-02-23T02:11:51.442Z,5.59
2019-02-23T02:12:50.731Z,5.57
2019-02-23T02:13:50.627Z,5.56
2019-02-23T02:14:50.621Z,5.57
2019-02-23T02:15:52.274Z,5.56
2019-02-23T02:16:51.371Z,5.56
2019-02-23T02:17:50.820Z,5.57
2019-02-23T02:18:51.373Z,5.47
2019-02-23T02:19:52.353Z,5.47
2019-02-23T02:20:51.459Z,5.46
2019-02-23T02:21:51.488Z,5.43
2019-02-23T02:22:50.624Z,5.4
2019-02-23T02:23:50.706Z,5.4
2019-02-23T02:24:52.348Z,5.39
2019-02-23T02:25:50.811Z,5.42
2019-02-23T02:26:50.674Z,5.38
2019-02-23T02:27:50.924Z,5.33
2019-02-23T02:28:50.669Z,5.35
2019-02-23T02:29:50.477Z,5.33
2019-02-23T02:30:51.250Z,5.3
2019-02-23T02:31:50.954Z,5.29
2019-02-23T02:32:51.389Z,5.3
2019-02-23T02:33:50.676Z,5.28
2019-02-23T02:34:50.873Z,5.26
2019-02-23T02:35:50.585Z,5.25
2019-02-23T02:36:50.570Z,5.23
2019-02-23T02:37:51.123Z,5.22
2019-02-23T02:38:50.765Z,5.22
2019-02-23T02:39:50.702Z,5.22
2019-02-23T02:40:50.579Z,5.21
2019-02-23T02:41:51.822Z,5.23
2019-02-23T02:42:52.298Z,5.22
2019-02-23T02:43:50.494Z,5.23
2019-02-23T02:44:51.046Z,5.25
2019-02-23T02:45:50.748Z,5.23
2019-02-23T02:46:50.485Z,5.22
2019-02-23T02:47:50.982Z,5.22
2019-02-23T02:48:50.538Z,5.14
2019-02-23T02:49:50.640Z,5.08
2019-02-23T02:50:50.551Z,5.11
2019-02-23T02:51:50.886Z,5.12
2019-02-23T02:52:51.621Z,5.08
2019-02-23T02:53:50.601Z,5.04
2019-02-23T02:54:50.484Z,5.01
2019-02-23T02:55:50.542Z,5.02
2019-02-23T02:56:52.347Z,5
2019-02-23T02:57:51.648Z,5
2019-02-23T02:58:50.607Z,4.98
2019-02-23T02:59:50.837Z,4.93
2019-02-23T03:00:50.623Z,4.93
2019-02-23T03:01:50.735Z,4.94
2019-02-23T03:02:52.294Z,4.86
2019-02-23T03:03:51.333Z,4.83
2019-02-23T03:04:50.697Z,4.84
2019-02-23T03:05:52.311Z,4.84
2019-02-23T03:06:50.805Z,4.87
2019-02-23T03:07:50.673Z,4.84
2019-02-23T03:08:50.649Z,4.83
2019-02-23T03:09:50.503Z,4.8
2019-02-23T03:10:52.272Z,4.79
2019-02-23T03:11:52.300Z,4.73
2019-02-23T03:12:50.407Z,4.73
2019-02-23T03:13:50.498Z,4.73
2019-02-23T03:14:50.940Z,4.67
2019-02-23T03:15:50.616Z,4.66
2019-02-23T03:16:50.735Z,4.65
2019-02-23T03:17:50.747Z,4.62
2019-02-23T03:18:50.873Z,4.63
2019-02-23T03:19:50.654Z,4.63
2019-02-23T03:20:50.420Z,4.62
2019-02-23T03:21:52.530Z,4.65
2019-02-23T03:22:50.232Z,4.65
2019-02-23T03:23:50.264Z,4.62
2019-02-23T03:24:50.258Z,4.6
2019-02-23T03:25:51.212Z,4.6
2019-02-23T03:26:52.281Z,4.57
2019-02-23T03:27:50.500Z,4.59
2019-02-23T03:28:50.483Z,4.59
2019-02-23T03:29:50.552Z,4.53
2019-02-23T03:30:50.644Z,4.56
2019-02-23T03:31:50.656Z,4.59
2019-02-23T03:32:51.514Z,4.57
2019-02-23T03:33:50.454Z,4.57
2019-02-23T03:34:51.300Z,4.56
2019-02-23T03:35:50.994Z,4.55
2019-02-23T03:36:50.407Z,4.48
2019-02-23T03:37:50.417Z,4.48
2019-02-23T03:38:50.680Z,4.48
2019-02-23T03:39:50.409Z,4.49
2019-02-23T03:40:50.428Z,4.46
2019-02-23T03:41:50.556Z,4.48
2019-02-23T03:42:50.591Z,4.46
2019-02-23T03:43:50.403Z,4.39
2019-02-23T03:44:50.380Z,4.4
2019-02-23T03:45:50.942Z,4.4
2019-02-23T03:46:51.447Z,4.39
2019-02-23T03:47:50.434Z,4.39
2019-02-23T03:48:50.543Z,4.33
2019-02-23T03:49:50.355Z,4.36
2019-02-23T03:50:50.453Z,4.35
2019-02-23T03:51:50.467Z,4.33
2019-02-23T03:52:52.228Z,4.33
2019-02-23T03:53:50.669Z,4.33
2019-02-23T03:54:50.456Z,4.29
2019-02-23T03:55:51.597Z,4.28
2019-02-23T03:56:50.586Z,4.32
2019-02-23T03:57:50.439Z,4.32
2019-02-23T03:58:52.217Z,4.28
2019-02-23T03:59:51.022Z,4.28
2019-02-23T04:00:50.481Z,4.28
2019-02-23T04:01:50.375Z,4.25
2019-02-23T04:02:51.030Z,4.25
2019-02-23T04:03:50.392Z,4.22
2019-02-23T04:04:50.480Z,4.22
2019-02-23T04:05:50.769Z,4.21
2019-02-23T04:06:50.591Z,4.19
2019-02-23T04:07:51.193Z,4.18
2019-02-23T04:08:52.195Z,4.19
2019-02-23T04:09:50.578Z,4.19
2019-02-23T04:10:50.485Z,4.18
2019-02-23T04:11:50.708Z,4.17
2019-02-23T04:12:50.180Z,4.21
2019-02-23T04:13:50.706Z,4.19
2019-02-23T04:14:50.435Z,4.14
2019-02-23T04:15:50.460Z,4.14
2019-02-23T04:16:51.314Z,4.11
2019-02-23T04:17:50.630Z,4.14
2019-02-23T04:18:51.047Z,4.12
2019-02-23T04:19:50.336Z,4.12
2019-02-23T04:21:02.279Z,4.17
2019-02-23T04:21:50.357Z,4.19
2019-02-23T04:22:50.552Z,4.22
2019-02-23T04:23:50.321Z,4.21
2019-02-23T04:24:50.798Z,4.17
2019-02-23T04:25:50.331Z,4.17
2019-02-23T04:26:50.700Z,4.12
2019-02-23T04:27:50.699Z,4.12
2019-02-23T04:28:51.528Z,4.07
2019-02-23T04:29:50.821Z,4.07
2019-02-23T04:30:50.425Z,4.05
2019-02-23T04:31:50.432Z,4.01
2019-02-23T04:32:50.639Z,3.98
2019-02-23T04:33:50.436Z,3.93
2019-02-23T04:34:50.734Z,3.93
2019-02-23T04:35:50.460Z,3.93
2019-02-23T04:36:50.339Z,3.93
2019-02-23T04:37:50.771Z,3.91
2019-02-23T04:38:51.308Z,3.91
2019-02-23T04:39:50.433Z,3.89
2019-02-23T04:40:50.280Z,3.86
2019-02-23T04:41:50.794Z,3.84
2019-02-23T04:42:50.316Z,3.83
2019-02-23T04:43:50.333Z,3.82
2019-02-23T04:44:50.717Z,3.8
2019-02-23T04:45:51.327Z,3.79
2019-02-23T04:46:50.623Z,3.8
2019-02-23T04:47:50.637Z,3.79
2019-02-23T04:48:50.836Z,3.76
2019-02-23T04:49:50.349Z,3.74
2019-02-23T04:50:50.749Z,3.73
2019-02-23T04:51:50.858Z,3.73
2019-02-23T04:52:50.699Z,3.76
2019-02-23T04:53:50.497Z,3.73
2019-02-23T04:54:50.391Z,3.73
2019-02-23T04:55:50.352Z,3.74
2019-02-23T04:56:50.325Z,3.72
2019-02-23T04:57:50.402Z,3.76
2019-02-23T04:58:50.595Z,3.74
2019-02-23T04:59:50.379Z,3.77
2019-02-23T05:00:50.707Z,3.82
2019-02-23T05:01:50.304Z,3.77
2019-02-23T05:02:50.278Z,3.73
2019-02-23T05:03:50.432Z,3.72
2019-02-23T05:04:50.737Z,3.7
2019-02-23T05:05:50.743Z,3.7
2019-02-23T05:06:50.656Z,3.7
2019-02-23T05:07:50.306Z,3.66
2019-02-23T05:08:50.238Z,3.66
2019-02-23T05:09:50.563Z,3.63
2019-02-23T05:10:50.429Z,3.61
2019-02-23T05:11:51.871Z,3.61
2019-02-23T05:12:51.353Z,3.62
2019-02-23T05:13:50.493Z,3.62
2019-02-23T05:14:50.317Z,3.59
2019-02-23T05:15:51.020Z,3.59
2019-02-23T05:16:50.433Z,3.58
2019-02-23T05:17:50.634Z,3.56
2019-02-23T05:18:50.339Z,3.59
2019-02-23T05:19:50.846Z,3.59
2019-02-23T05:20:50.313Z,3.54
2019-02-23T05:21:50.539Z,3.56
2019-02-23T05:22:50.662Z,3.56
2019-02-23T05:23:50.450Z,3.61
2019-02-23T05:24:53.589Z,3.56
2019-02-23T05:25:50.432Z,3.56
2019-02-23T05:26:50.303Z,3.56
2019-02-23T05:27:50.337Z,3.54
2019-02-23T05:28:50.694Z,3.54
2019-02-23T05:29:50.568Z,3.54
2019-02-23T05:30:50.438Z,3.52
2019-02-23T05:31:50.721Z,3.51
2019-02-23T05:32:50.730Z,3.49
2019-02-23T05:33:52.078Z,3.46
2019-02-23T05:34:52.086Z,3.46
2019-02-23T05:35:50.400Z,3.41
2019-02-23T05:36:50.268Z,3.45
2019-02-23T05:37:50.977Z,3.48
2019-02-23T05:38:50.655Z,3.44
2019-02-23T05:39:50.681Z,3.48
2019-02-23T05:40:50.363Z,3.48
2019-02-23T05:41:50.322Z,3.49
2019-02-23T05:43:01.597Z,3.44
2019-02-23T05:43:50.395Z,3.42
2019-02-23T05:44:50.336Z,3.44
2019-02-23T05:45:50.598Z,3.44
2019-02-23T05:46:50.813Z,3.42
2019-02-23T05:47:50.359Z,3.41
2019-02-23T05:48:50.318Z,3.41
2019-02-23T05:49:50.829Z,3.37
2019-02-23T05:50:50.717Z,3.41
2019-02-23T05:51:50.327Z,3.37
2019-02-23T05:52:50.664Z,3.37
2019-02-23T05:53:50.760Z,3.32
2019-02-23T05:54:50.894Z,3.34
2019-02-23T05:55:51.678Z,3.28
2019-02-23T05:56:52.040Z,3.25
2019-02-23T05:57:50.607Z,3.27
2019-02-23T05:58:50.606Z,3.25
2019-02-23T05:59:50.481Z,3.22
2019-02-23T06:00:50.721Z,3.22
2019-02-23T06:01:51.218Z,3.21
2019-02-23T06:02:50.519Z,3.18
2019-02-23T06:03:50.372Z,3.21
2019-02-23T06:04:50.172Z,3.24
2019-02-23T06:05:50.329Z,3.2
2019-02-23T06:06:50.286Z,3.21
2019-02-23T06:07:51.059Z,3.22
2019-02-23T06:08:50.152Z,3.22
2019-02-23T06:09:49.995Z,3.21
2019-02-23T06:10:50.270Z,3.21
2019-02-23T06:11:50.193Z,3.2
2019-02-23T06:12:51.142Z,3.18
2019-02-23T06:13:50.232Z,3.21
2019-02-23T06:14:50.489Z,3.17
2019-02-23T06:15:50.904Z,3.17
2019-02-23T06:16:50.713Z,3.18
2019-02-23T06:17:50.121Z,3.15
2019-02-23T06:18:50.516Z,3.15
2019-02-23T06:19:50.409Z,3.15
2019-02-23T06:20:50.305Z,3.14
2019-02-23T06:21:54.872Z,3.2
2019-02-23T06:22:50.327Z,3.14
2019-02-23T06:23:49.991Z,3.15
2019-02-23T06:24:49.988Z,3.12
2019-02-23T06:25:49.998Z,3.12
2019-02-23T06:26:49.980Z,3.11
2019-02-23T06:27:49.992Z,3.07
2019-02-23T06:28:49.978Z,3.08
2019-02-23T06:29:50.130Z,3.07
2019-02-23T06:30:50.604Z,3.08
2019-02-23T06:31:50.288Z,3.08
2019-02-23T06:32:50.110Z,3.06
2019-02-23T06:33:50.256Z,3.07
2019-02-23T06:34:50.263Z,3.07
2019-02-23T06:35:50.403Z,3.07
2019-02-23T06:36:50.284Z,3.07
2019-02-23T06:37:53.572Z,3.06
2019-02-23T06:38:50.883Z,3.03
2019-02-23T06:39:50.194Z,3.06
2019-02-23T06:40:50.458Z,3.04
2019-02-23T06:41:50.243Z,3.11
2019-02-23T06:42:50.678Z,3.08
2019-02-23T06:43:50.374Z,3.12
2019-02-23T06:44:50.377Z,3.1
2019-02-23T06:45:50.994Z,3.11
2019-02-23T06:46:50.259Z,3.08
2019-02-23T06:47:50.109Z,3.1
2019-02-23T06:48:50.275Z,3.1
2019-02-23T06:49:50.130Z,3.11
2019-02-23T06:50:50.526Z,3.11
2019-02-23T06:51:50.538Z,3.11
2019-02-23T06:52:49.920Z,3.11
2019-02-23T06:53:51.313Z,3.11
2019-02-23T06:54:50.975Z,3.11
2019-02-23T06:55:50.078Z,3.11
2019-02-23T06:56:50.313Z,3.12
2019-02-23T06:57:51.009Z,3.11
2019-02-23T06:58:50.269Z,3.11
2019-02-23T06:59:50.894Z,3.12
2019-02-23T07:00:50.082Z,3.12
2019-02-23T07:01:50.290Z,3.11
2019-02-23T07:02:50.170Z,3.12
2019-02-23T07:03:50.297Z,3.11
2019-02-23T07:04:50.072Z,3.12
2019-02-23T07:05:50.220Z,3.12
2019-02-23T07:06:50.202Z,3.12
2019-02-23T07:07:50.482Z,3.17
2019-02-23T07:08:50.108Z,3.15
2019-02-23T07:09:50.264Z,3.12
2019-02-23T07:10:50.453Z,3.14
2019-02-23T07:11:50.148Z,3.11
2019-02-23T07:12:50.555Z,3.14
2019-02-23T07:13:50.670Z,3.17
2019-02-23T07:14:50.108Z,3.18
2019-02-23T07:15:50.113Z,3.17
2019-02-23T07:16:50.395Z,3.18
2019-02-23T07:17:50.944Z,3.18
2019-02-23T07:18:50.702Z,3.21
2019-02-23T07:19:50.380Z,3.25
2019-02-23T07:20:50.416Z,3.27
2019-02-23T07:21:50.621Z,3.25
2019-02-23T07:22:50.320Z,3.27
2019-02-23T07:23:50.109Z,3.27
2019-02-23T07:24:50.072Z,3.27
2019-02-23T07:25:50.086Z,3.27
2019-02-23T07:26:50.476Z,3.28
2019-02-23T07:27:50.799Z,3.28
2019-02-23T07:28:50.357Z,3.29
2019-02-23T07:29:50.038Z,3.32
2019-02-23T07:30:50.269Z,3.34
2019-02-23T07:31:50.379Z,3.37
2019-02-23T07:32:50.509Z,3.39
2019-02-23T07:33:50.613Z,3.38
2019-02-23T07:34:50.492Z,3.37
2019-02-23T07:35:50.101Z,3.39
2019-02-23T07:36:51.886Z,3.42
2019-02-23T07:37:50.101Z,3.41
2019-02-23T07:38:51.261Z,3.42
2019-02-23T07:39:50.429Z,3.44
2019-02-23T07:40:50.339Z,3.44
2019-02-23T07:41:50.171Z,3.46
2019-02-23T07:42:51.067Z,3.46
2019-02-23T07:43:50.937Z,3.45
2019-02-23T07:44:50.205Z,3.49
2019-02-23T07:45:50.907Z,3.48
2019-02-23T07:46:50.485Z,3.51
2019-02-23T07:47:50.011Z,3.49
2019-02-23T07:48:50.347Z,3.49
2019-02-23T07:49:50.093Z,3.49
2019-02-23T07:50:52.827Z,3.49
2019-02-23T07:51:51.023Z,3.51
2019-02-23T07:52:50.309Z,3.51
2019-02-23T07:53:50.108Z,3.54
2019-02-23T07:54:50.254Z,3.58
2019-02-23T07:55:50.337Z,3.56
2019-02-23T07:56:50.239Z,3.56
2019-02-23T07:57:51.844Z,3.56
2019-02-23T07:58:50.058Z,3.62
2019-02-23T07:59:50.485Z,3.62
2019-02-23T08:00:50.482Z,3.63
2019-02-23T08:01:50.078Z,3.65
2019-02-23T08:02:50.357Z,3.65
2019-02-23T08:03:50.705Z,3.67
2019-02-23T08:04:52.208Z,3.73
2019-02-23T08:05:50.503Z,3.74
2019-02-23T08:06:49.994Z,3.74
2019-02-23T08:07:50.530Z,3.77
2019-02-23T08:08:50.065Z,3.82
2019-02-23T08:09:50.222Z,3.77
2019-02-23T08:10:50.464Z,3.8
2019-02-23T08:11:51.832Z,3.83
2019-02-23T08:12:51.840Z,3.87
2019-02-23T08:13:50.012Z,3.9
2019-02-23T08:14:50.160Z,3.93
2019-02-23T08:15:50.059Z,3.93
2019-02-23T08:16:50.303Z,3.93
2019-02-23T08:17:50.122Z,3.9
2019-02-23T08:18:50.033Z,3.93
2019-02-23T08:19:50.188Z,3.96
2019-02-23T08:20:50.347Z,3.9
2019-02-23T08:21:50.824Z,3.87
2019-02-23T08:22:51.005Z,3.9
2019-02-23T08:23:50.429Z,3.9
2019-02-23T08:24:50.323Z,3.9
2019-02-23T08:25:50.660Z,3.94
2019-02-23T08:26:51.256Z,3.98
2019-02-23T08:27:50.342Z,4.01
2019-02-23T08:28:50.250Z,4.02
2019-02-23T08:29:50.142Z,4.11
2019-02-23T08:30:50.072Z,4.11
2019-02-23T08:31:50.054Z,4.18
2019-02-23T08:32:50.480Z,4.21
2019-02-23T08:33:50.282Z,4.21
2019-02-23T08:34:50.088Z,4.19
2019-02-23T08:35:49.778Z,4.24
2019-02-23T08:36:50.409Z,4.28
2019-02-23T08:37:50.636Z,4.33
2019-02-23T08:38:50.123Z,4.35
2019-02-23T08:39:50.013Z,4.36
2019-02-23T08:40:49.988Z,4.4
2019-02-23T08:41:50.027Z,4.4
2019-02-23T08:42:50.555Z,4.42
2019-02-23T08:43:51.786Z,4.43
2019-02-23T08:44:50.023Z,4.43
2019-02-23T08:45:50.096Z,4.46
2019-02-23T08:46:50.049Z,4.48
2019-02-23T08:47:50.394Z,4.51
2019-02-23T08:48:50.381Z,4.51
2019-02-23T08:49:50.079Z,4.49
2019-02-23T08:50:50.312Z,4.51
2019-02-23T08:51:50.047Z,4.53
2019-02-23T08:52:50.617Z,4.53
2019-02-23T08:53:49.938Z,4.53
2019-02-23T08:54:50.420Z,4.52
2019-02-23T08:55:50.075Z,4.45
2019-02-23T08:56:49.997Z,4.49
2019-02-23T08:57:50.237Z,4.57
2019-02-23T08:58:50.049Z,4.57
2019-02-23T08:59:50.020Z,4.65
2019-02-23T09:00:50.046Z,4.59
2019-02-23T09:01:49.913Z,4.63
2019-02-23T09:02:50.075Z,4.63
2019-02-23T09:03:49.996Z,4.66
2019-02-23T09:04:50.072Z,4.67
2019-02-23T09:05:51.758Z,4.73
2019-02-23T09:06:50.018Z,4.79
2019-02-23T09:07:50.321Z,4.81
2019-02-23T09:08:50.622Z,4.87
2019-02-23T09:09:51.633Z,4.88
2019-02-23T09:10:50.159Z,4.93
2019-02-23T09:11:50.078Z,4.95
2019-02-23T09:12:50.073Z,5
2019-02-23T09:13:50.012Z,4.95
2019-02-23T09:14:50.471Z,5
2019-02-23T09:15:50.456Z,5.02
2019-02-23T09:16:50.571Z,5.07
2019-02-23T09:17:50.064Z,5.11
2019-02-23T09:18:50.172Z,5.16
2019-02-23T09:19:49.877Z,5.15
2019-02-23T09:20:52.208Z,5.1
2019-02-23T09:21:51.734Z,5.1
2019-02-23T09:23:00.683Z,5.12
2019-02-23T09:23:50.313Z,5.18
2019-02-23T09:24:50.128Z,5.23
2019-02-23T09:25:50.004Z,5.29
2019-02-23T09:26:49.964Z,5.35
2019-02-23T09:27:50.097Z,5.36
2019-02-23T09:28:49.996Z,5.35
2019-02-23T09:29:50.000Z,5.3
2019-02-23T09:30:50.671Z,5.3
2019-02-23T09:31:50.156Z,5.32
2019-02-23T09:32:50.001Z,5.38
2019-02-23T09:33:50.481Z,5.38
2019-02-23T09:34:50.278Z,5.4
2019-02-23T09:35:50.111Z,5.46
2019-02-23T09:36:49.961Z,5.47
2019-02-23T09:37:50.022Z,5.49
2019-02-23T09:38:50.063Z,5.53
2019-02-23T09:39:49.939Z,5.57
2019-02-23T09:40:49.948Z,5.49
2019-02-23T09:41:49.962Z,5.45
2019-02-23T09:42:50.128Z,5.5
2019-02-23T09:43:49.849Z,5.59
2019-02-23T09:44:50.126Z,5.6
2019-02-23T09:45:50.237Z,5.66
2019-02-23T09:46:49.970Z,5.69
2019-02-23T09:47:50.369Z,5.75
2019-02-23T09:48:50.064Z,5.8
2019-02-23T09:49:50.393Z,5.83
2019-02-23T09:50:51.751Z,5.77
2019-02-23T09:51:51.716Z,5.8
2019-02-23T09:52:50.607Z,5.83
2019-02-23T09:53:49.839Z,5.9
2019-02-23T09:54:50.035Z,5.95
2019-02-23T09:55:50.002Z,6.01
2019-02-23T09:56:51.690Z,6.02
2019-02-23T09:57:50.396Z,6.08
2019-02-23T09:58:50.036Z,6.12
2019-02-23T09:59:49.970Z,6.12
2019-02-23T10:00:50.159Z,6.16
2019-02-23T10:01:50.064Z,6.22
2019-02-23T10:02:49.962Z,6.23
2019-02-23T10:03:50.370Z,6.28
2019-02-23T10:04:49.970Z,6.28
2019-02-23T10:05:49.950Z,6.23
2019-02-23T10:06:50.604Z,6.25
2019-02-23T10:07:49.921Z,6.35
2019-02-23T10:08:49.841Z,6.39
2019-02-23T10:09:49.803Z,6.44
2019-02-23T10:10:49.820Z,6.47
2019-02-23T10:11:50.315Z,6.5
2019-02-23T10:12:50.270Z,6.48
2019-02-23T10:13:51.654Z,6.5
2019-02-23T10:14:50.143Z,6.5
2019-02-23T10:15:50.008Z,6.44
2019-02-23T10:16:50.432Z,6.43
2019-02-23T10:17:50.071Z,6.53
2019-02-23T10:18:49.891Z,6.57
2019-02-23T10:19:50.177Z,6.57
2019-02-23T10:20:49.898Z,6.57
2019-02-23T10:21:50.090Z,6.63
2019-02-23T10:22:50.187Z,6.7
2019-02-23T10:23:50.296Z,6.78
2019-02-23T10:24:50.108Z,6.84
2019-02-23T10:25:49.776Z,6.84
2019-02-23T10:26:50.748Z,6.85
2019-02-23T10:27:50.068Z,6.85
2019-02-23T10:28:49.773Z,6.87
2019-02-23T10:29:49.837Z,6.91
2019-02-23T10:30:49.899Z,6.94
2019-02-23T10:31:49.816Z,6.92
2019-02-23T10:32:49.952Z,6.98
2019-02-23T10:33:49.762Z,6.91
2019-02-23T10:34:49.962Z,6.91
2019-02-23T10:35:50.071Z,6.99
2019-02-23T10:36:51.627Z,6.99
2019-02-23T10:37:49.988Z,7.03
2019-02-23T10:38:50.093Z,7.06
2019-02-23T10:39:51.631Z,7.11
2019-02-23T10:40:51.638Z,7.15
2019-02-23T10:41:50.219Z,7.15
2019-02-23T10:42:49.810Z,7.18
2019-02-23T10:43:50.026Z,7.16
2019-02-23T10:44:50.544Z,7.24
2019-02-23T10:45:49.905Z,7.24
2019-02-23T10:46:49.894Z,7.29
2019-02-23T10:47:50.493Z,7.34
2019-02-23T10:48:49.776Z,7.39
2019-02-23T10:49:49.738Z,7.46
2019-02-23T10:50:50.064Z,7.53
2019-02-23T10:51:49.809Z,7.51
2019-02-23T10:52:50.630Z,7.53
2019-02-23T10:53:50.087Z,7.57
2019-02-23T10:54:50.206Z,7.62
2019-02-23T10:55:50.747Z,7.64
2019-02-23T10:56:51.126Z,7.64
2019-02-23T10:57:50.313Z,7.57
2019-02-23T10:58:50.628Z,7.59
2019-02-23T10:59:49.910Z,7.55
2019-02-23T11:00:50.254Z,7.55
2019-02-23T11:01:51.641Z,7.67
2019-02-23T11:02:51.084Z,7.68
2019-02-23T11:03:49.975Z,7.74
2019-02-23T11:04:49.927Z,7.77
2019-02-23T11:05:50.073Z,7.8
2019-02-23T11:06:49.972Z,7.78
2019-02-23T11:07:49.744Z,7.86
2019-02-23T11:08:49.724Z,7.95
2019-02-23T11:09:49.734Z,8.03
2019-02-23T11:10:51.571Z,8.12
2019-02-23T11:11:49.558Z,8.14
2019-02-23T11:12:49.543Z,8.21
2019-02-23T11:13:49.713Z,8.17
2019-02-23T11:14:49.754Z,8.21
2019-02-23T11:15:50.034Z,8.23
2019-02-23T11:16:51.602Z,8.26
2019-02-23T11:17:50.043Z,8.31
2019-02-23T11:18:50.634Z,8.3
2019-02-23T11:19:49.955Z,8.38
2019-02-23T11:20:49.541Z,8.43
2019-02-23T11:21:50.274Z,8.41
2019-02-23T11:22:50.500Z,8.47
2019-02-23T11:23:49.756Z,8.51
2019-02-23T11:24:49.724Z,8.52
2019-02-23T11:25:50.507Z,8.59
2019-02-23T11:26:49.741Z,8.65
2019-02-23T11:27:49.692Z,8.69
2019-02-23T11:28:50.130Z,8.74
2019-02-23T11:29:49.716Z,8.79
2019-02-23T11:30:50.030Z,8.75
2019-02-23T11:31:51.542Z,8.72
2019-02-23T11:32:50.581Z,8.76
2019-02-23T11:33:50.148Z,8.83
2019-02-23T11:34:50.193Z,8.8
2019-02-23T11:35:50.022Z,8.79
2019-02-23T11:36:49.689Z,8.82
2019-02-23T11:37:50.186Z,8.86
2019-02-23T11:38:50.061Z,8.83
2019-02-23T11:39:51.106Z,8.91
2019-02-23T11:40:50.307Z,8.91
2019-02-23T11:41:49.781Z,8.96
2019-02-23T11:42:50.007Z,9.03
2019-02-23T11:43:50.423Z,8.96
2019-02-23T11:44:49.715Z,8.99
2019-02-23T11:45:50.334Z,9.06
2019-02-23T11:47:00.700Z,9.11
2019-02-23T11:47:49.680Z,9.17
2019-02-23T11:48:50.493Z,9.14
2019-02-23T11:49:50.067Z,9.2
2019-02-23T11:50:49.662Z,9.23
2019-02-23T11:51:50.529Z,9.33
2019-02-23T11:52:50.086Z,9.4
2019-02-23T11:53:55.507Z,9.42
2019-02-23T11:54:50.094Z,9.42
2019-02-23T11:55:49.640Z,9.38
2019-02-23T11:56:49.770Z,9.38
2019-02-23T11:57:50.072Z,9.45
2019-02-23T11:58:50.027Z,9.45
2019-02-23T11:59:49.751Z,9.52
2019-02-23T12:00:49.729Z,9.55
2019-02-23T12:01:50.511Z,9.59
2019-02-23T12:02:53.065Z,9.65
2019-02-23T12:03:49.697Z,9.65
2019-02-23T12:04:50.152Z,9.66
2019-02-23T12:05:50.066Z,9.72
2019-02-23T12:06:49.705Z,9.75
2019-02-23T12:07:49.869Z,9.72
2019-02-23T12:08:49.706Z,9.76
2019-02-23T12:09:49.714Z,9.82
2019-02-23T12:10:49.647Z,9.81
2019-02-23T12:11:49.654Z,9.86
2019-02-23T12:12:49.902Z,9.7
2019-02-23T12:13:49.764Z,9.76
2019-02-23T12:14:50.175Z,9.86
2019-02-23T12:15:49.638Z,9.93
2019-02-23T12:16:49.651Z,9.92
2019-02-23T12:17:50.253Z,9.96
2019-02-23T12:18:49.946Z,9.96
2019-02-23T12:19:51.477Z,10.02
2019-02-23T12:20:50.055Z,10.13
2019-02-23T12:21:49.753Z,10.16
2019-02-23T12:22:50.376Z,10.21
2019-02-23T12:23:51.477Z,10.21
2019-02-23T12:24:49.782Z,10.37
2019-02-23T12:25:51.011Z,10.35
2019-02-23T12:26:49.759Z,10.45
2019-02-23T12:27:49.748Z,10.45
2019-02-23T12:28:49.671Z,10.42
2019-02-23T12:29:49.679Z,10.39
2019-02-23T12:30:49.704Z,10.41
2019-02-23T12:31:49.697Z,10.38
2019-02-23T12:32:49.591Z,10.44
2019-02-23T12:33:49.621Z,10.48
2019-02-23T12:34:49.759Z,10.47
2019-02-23T12:35:49.586Z,10.51
2019-02-23T12:36:49.616Z,10.52
2019-02-23T12:37:49.643Z,10.62
2019-02-23T12:38:50.082Z,10.68
2019-02-23T12:39:49.649Z,10.73
2019-02-23T12:40:49.666Z,10.76
2019-02-23T12:41:50.201Z,10.76
2019-02-23T12:42:50.306Z,10.79
2019-02-23T12:43:50.109Z,10.83
2019-02-23T12:44:51.120Z,10.82
2019-02-23T12:45:50.022Z,10.78
2019-02-23T12:46:49.758Z,10.76
2019-02-23T12:47:51.432Z,10.86
2019-02-23T12:48:49.946Z,10.87
2019-02-23T12:49:49.739Z,10.87
2019-02-23T12:50:49.682Z,10.84
2019-02-23T12:51:49.747Z,10.8
2019-02-23T12:52:49.618Z,10.87
2019-02-23T12:53:51.425Z,10.86
2019-02-23T12:54:50.458Z,10.9
2019-02-23T12:55:50.184Z,10.94
2019-02-23T12:56:49.800Z,10.89
2019-02-23T12:57:49.800Z,10.89
2019-02-23T12:58:49.797Z,10.9
2019-02-23T12:59:49.908Z,10.84
2019-02-23T13:00:49.818Z,10.79
2019-02-23T13:01:49.722Z,10.8
2019-02-23T13:02:50.147Z,10.89
2019-02-23T13:03:49.601Z,10.9
2019-02-23T13:04:49.575Z,10.99
2019-02-23T13:05:50.114Z,11.06
2019-02-23T13:06:50.331Z,11.07
2019-02-23T13:07:51.712Z,11.1
2019-02-23T13:08:49.748Z,11.14
2019-02-23T13:09:49.621Z,11.08
2019-02-23T13:10:51.400Z,11
2019-02-23T13:11:49.643Z,10.94
2019-02-23T13:12:49.688Z,10.99
2019-02-23T13:13:49.812Z,10.97
2019-02-23T13:14:49.924Z,10.94
2019-02-23T13:15:49.573Z,10.96
2019-02-23T13:16:49.583Z,11.04
2019-02-23T13:17:49.827Z,11.01
2019-02-23T13:18:50.050Z,11.08
2019-02-23T13:19:49.703Z,11.12